sensor_id;sensor_type;location;lat;lon;timestamp;pressure;altitude;pressure_sealevel;temperature;humidity
929;BME280;451;47.988;7.842;2023-10-31T00:01:37;97146.38;;;11.63;100.00
929;BME280;451;47.988;7.842;2023-10-31T00:10:40;97154.31;;;11.50;100.00
929;BME280;451;47.988;7.842;2023-10-31T00:19:48;97156.16;;;11.43;100.00
929;BME280;451;47.988;7.842;2023-10-31T00:28:51;97135.94;;;11.37;100.00
929;BME280;451;47.988;7.842;2023-10-31T00:37:55;97151.28;;;11.60;100.00
929;BME280;451;47.988;7.842;2023-10-31T00:46:59;97160.16;;;11.65;100.00
929;BME280;451;47.988;7.842;2023-10-31T00:56:06;97133.06;;;11.58;100.00
929;BME280;451;47.988;7.842;2023-10-31T01:05:10;97133.09;;;11.45;100.00
929;BME280;451;47.988;7.842;2023-10-31T01:14:15;97150.28;;;11.54;100.00
929;BME280;451;47.988;7.842;2023-10-31T01:23:18;97152.50;;;11.51;100.00
929;BME280;451;47.988;7.842;2023-10-31T01:32:25;97141.47;;;11.29;100.00
929;BME280;451;47.988;7.842;2023-10-31T01:41:30;97171.56;;;11.40;100.00
929;BME280;451;47.988;7.842;2023-10-31T01:50:37;97160.72;;;11.16;100.00
929;BME280;451;47.988;7.842;2023-10-31T01:59:44;97160.38;;;10.93;100.00
929;BME280;451;47.988;7.842;2023-10-31T02:08:49;97176.31;;;11.11;100.00
929;BME280;451;47.988;7.842;2023-10-31T02:17:52;97202.63;;;11.05;100.00
929;BME280;451;47.988;7.842;2023-10-31T02:26:57;97239.84;;;11.15;100.00
929;BME280;451;47.988;7.842;2023-10-31T02:36:04;97257.44;;;11.21;100.00
929;BME280;451;47.988;7.842;2023-10-31T02:45:12;97250.78;;;11.12;100.00
929;BME280;451;47.988;7.842;2023-10-31T02:54:15;97261.47;;;10.90;100.00
929;BME280;451;47.988;7.842;2023-10-31T03:03:20;97266.94;;;10.96;100.00
929;BME280;451;47.988;7.842;2023-10-31T03:12:23;97284.16;;;11.05;100.00
929;BME280;451;47.988;7.842;2023-10-31T03:21:28;97302.13;;;11.01;100.00
929;BME280;451;47.988;7.842;2023-10-31T03:30:31;97300.50;;;10.93;100.00
929;BME280;451;47.988;7.842;2023-10-31T03:39:36;97317.72;;;11.16;100.00
929;BME280;451;47.988;7.842;2023-10-31T03:48:40;97304.97;;;11.13;100.00
929;BME280;451;47.988;7.842;2023-10-31T03:57:46;97317.53;;;11.17;100.00
929;BME280;451;47.988;7.842;2023-10-31T04:06:49;97329.88;;;11.04;100.00
929;BME280;451;47.988;7.842;2023-10-31T04:15:54;97326.63;;;11.08;100.00
929;BME280;451;47.988;7.842;2023-10-31T04:24:58;97320.34;;;11.03;100.00
929;BME280;451;47.988;7.842;2023-10-31T04:34:03;97348.06;;;11.18;100.00
929;BME280;451;47.988;7.842;2023-10-31T04:43:06;97305.56;;;10.95;100.00
929;BME280;451;47.988;7.842;2023-10-31T04:52:11;97308.00;;;11.03;100.00
929;BME280;451;47.988;7.842;2023-10-31T05:01:16;97339.97;;;11.26;100.00
929;BME280;451;47.988;7.842;2023-10-31T05:10:23;97363.88;;;11.38;100.00
929;BME280;451;47.988;7.842;2023-10-31T05:19:29;97371.97;;;11.50;100.00
929;BME280;451;47.988;7.842;2023-10-31T05:28:39;97378.03;;;11.50;100.00
929;BME280;451;47.988;7.842;2023-10-31T05:37:45;97378.25;;;11.49;100.00
929;BME280;451;47.988;7.842;2023-10-31T05:46:50;97375.22;;;11.45;100.00
929;BME280;451;47.988;7.842;2023-10-31T05:55:53;97385.72;;;11.52;100.00
929;BME280;451;47.988;7.842;2023-10-31T06:04:59;97382.09;;;11.46;100.00
929;BME280;451;47.988;7.842;2023-10-31T06:14:04;97399.91;;;11.51;100.00
929;BME280;451;47.988;7.842;2023-10-31T06:23:09;97404.78;;;11.54;100.00
929;BME280;451;47.988;7.842;2023-10-31T06:32:12;97413.25;;;11.23;100.00
929;BME280;451;47.988;7.842;2023-10-31T06:41:18;97430.44;;;11.25;100.00
929;BME280;451;47.988;7.842;2023-10-31T06:50:21;97425.59;;;11.29;100.00
929;BME280;451;47.988;7.842;2023-10-31T06:59:27;97430.66;;;11.50;100.00
929;BME280;451;47.988;7.842;2023-10-31T07:08:32;97447.28;;;11.64;100.00
929;BME280;451;47.988;7.842;2023-10-31T07:17:40;97449.34;;;11.82;100.00
929;BME280;451;47.988;7.842;2023-10-31T07:26:44;97458.88;;;11.83;100.00
929;BME280;451;47.988;7.842;2023-10-31T07:35:48;97465.16;;;11.95;100.00
929;BME280;451;47.988;7.842;2023-10-31T07:44:51;97485.81;;;12.04;100.00
929;BME280;451;47.988;7.842;2023-10-31T07:53:56;97481.38;;;12.05;100.00
929;BME280;451;47.988;7.842;2023-10-31T08:03:00;97496.91;;;12.39;100.00
929;BME280;451;47.988;7.842;2023-10-31T08:12:05;97499.28;;;12.74;100.00
929;BME280;451;47.988;7.842;2023-10-31T08:21:08;97516.78;;;12.55;100.00
929;BME280;451;47.988;7.842;2023-10-31T08:30:13;97489.03;;;12.13;100.00
929;BME280;451;47.988;7.842;2023-10-31T08:39:16;97525.09;;;12.45;100.00
929;BME280;451;47.988;7.842;2023-10-31T08:48:21;97527.69;;;12.65;100.00
929;BME280;451;47.988;7.842;2023-10-31T08:57:25;97532.34;;;12.76;100.00
929;BME280;451;47.988;7.842;2023-10-31T09:06:30;97550.97;;;12.81;100.00
929;BME280;451;47.988;7.842;2023-10-31T09:15:33;97542.19;;;13.01;100.00
929;BME280;451;47.988;7.842;2023-10-31T09:24:42;97503.03;;;13.04;100.00
929;BME280;451;47.988;7.842;2023-10-31T09:33:45;97531.59;;;13.20;100.00
929;BME280;451;47.988;7.842;2023-10-31T09:42:50;97530.97;;;13.63;98.95
929;BME280;451;47.988;7.842;2023-10-31T09:51:54;97544.81;;;13.90;96.52
929;BME280;451;47.988;7.842;2023-10-31T10:00:59;97502.50;;;13.96;91.84
929;BME280;451;47.988;7.842;2023-10-31T10:10:02;97548.06;;;14.48;90.91
929;BME280;451;47.988;7.842;2023-10-31T10:19:20;97547.56;;;14.58;87.42
929;BME280;451;47.988;7.842;2023-10-31T10:28:23;97536.75;;;14.34;89.53
929;BME280;451;47.988;7.842;2023-10-31T10:37:29;97555.03;;;14.85;90.80
929;BME280;451;47.988;7.842;2023-10-31T10:46:34;97559.63;;;14.72;88.73
929;BME280;451;47.988;7.842;2023-10-31T10:55:40;97550.28;;;14.87;88.37
929;BME280;451;47.988;7.842;2023-10-31T11:04:48;97552.81;;;15.55;84.48
929;BME280;451;47.988;7.842;2023-10-31T11:13:53;97541.72;;;15.88;83.75
929;BME280;451;47.988;7.842;2023-10-31T11:22:58;97544.97;;;15.60;82.28
929;BME280;451;47.988;7.842;2023-10-31T11:32:09;97498.50;;;14.80;83.23
929;BME280;451;47.988;7.842;2023-10-31T11:41:13;97553.47;;;14.78;84.94
929;BME280;451;47.988;7.842;2023-10-31T11:50:17;97540.75;;;14.86;84.60
929;BME280;451;47.988;7.842;2023-10-31T11:59:21;97581.34;;;14.99;85.14
929;BME280;451;47.988;7.842;2023-10-31T12:08:26;97577.59;;;14.63;86.91
929;BME280;451;47.988;7.842;2023-10-31T12:17:30;97581.41;;;14.92;85.60
929;BME280;451;47.988;7.842;2023-10-31T12:26:35;97571.84;;;14.73;86.46
929;BME280;451;47.988;7.842;2023-10-31T12:35:39;97589.41;;;14.67;89.77
929;BME280;451;47.988;7.842;2023-10-31T12:44:43;97605.03;;;14.44;94.22
929;BME280;451;47.988;7.842;2023-10-31T12:53:48;97621.06;;;13.86;100.00
929;BME280;451;47.988;7.842;2023-10-31T13:03:03;97581.00;;;12.87;100.00
929;BME280;451;47.988;7.842;2023-10-31T13:12:08;97639.63;;;12.89;100.00
929;BME280;451;47.988;7.842;2023-10-31T13:21:13;97645.97;;;12.48;100.00
929;BME280;451;47.988;7.842;2023-10-31T13:30:19;97654.22;;;12.19;100.00
929;BME280;451;47.988;7.842;2023-10-31T13:39:24;97661.34;;;12.25;100.00
929;BME280;451;47.988;7.842;2023-10-31T13:48:27;97662.75;;;12.21;100.00
929;BME280;451;47.988;7.842;2023-10-31T13:57:32;97668.66;;;12.36;100.00
929;BME280;451;47.988;7.842;2023-10-31T14:06:35;97635.41;;;12.22;100.00
929;BME280;451;47.988;7.842;2023-10-31T14:15:40;97684.09;;;12.66;100.00
929;BME280;451;47.988;7.842;2023-10-31T14:24:43;97688.13;;;12.75;100.00
929;BME280;451;47.988;7.842;2023-10-31T14:33:49;97686.53;;;12.80;100.00
929;BME280;451;47.988;7.842;2023-10-31T14:42:53;97724.47;;;12.99;100.00
929;BME280;451;47.988;7.842;2023-10-31T14:51:57;97745.78;;;13.04;100.00
929;BME280;451;47.988;7.842;2023-10-31T15:01:01;97724.69;;;12.84;100.00
929;BME280;451;47.988;7.842;2023-10-31T15:10:08;97757.13;;;12.78;100.00
929;BME280;451;47.988;7.842;2023-10-31T15:19:11;97771.16;;;12.92;100.00
929;BME280;451;47.988;7.842;2023-10-31T15:28:17;97733.88;;;12.15;100.00
929;BME280;451;47.988;7.842;2023-10-31T15:37:20;97798.84;;;12.42;100.00
929;BME280;451;47.988;7.842;2023-10-31T15:46:24;97806.94;;;12.40;100.00
929;BME280;451;47.988;7.842;2023-10-31T15:55:27;97811.91;;;12.16;100.00
929;BME280;451;47.988;7.842;2023-10-31T16:04:32;97831.63;;;12.26;100.00
929;BME280;451;47.988;7.842;2023-10-31T16:13:35;97859.81;;;12.32;100.00
929;BME280;451;47.988;7.842;2023-10-31T16:22:40;97883.19;;;12.35;100.00
929;BME280;451;47.988;7.842;2023-10-31T16:31:43;97843.38;;;12.24;100.00
929;BME280;451;47.988;7.842;2023-10-31T16:40:48;97896.63;;;12.53;100.00
929;BME280;451;47.988;7.842;2023-10-31T16:49:51;97916.91;;;12.53;100.00
929;BME280;451;47.988;7.842;2023-10-31T16:58:55;97925.81;;;12.52;100.00
929;BME280;451;47.988;7.842;2023-10-31T17:07:58;97946.56;;;12.62;100.00
929;BME280;451;47.988;7.842;2023-10-31T17:17:03;97964.84;;;12.70;100.00
929;BME280;451;47.988;7.842;2023-10-31T17:26:07;97976.63;;;12.67;100.00
929;BME280;451;47.988;7.842;2023-10-31T17:35:11;97984.50;;;12.61;100.00
929;BME280;451;47.988;7.842;2023-10-31T17:44:15;98000.84;;;12.49;100.00
929;BME280;451;47.988;7.842;2023-10-31T17:53:20;97997.25;;;12.57;100.00
929;BME280;451;47.988;7.842;2023-10-31T18:02:23;98017.16;;;12.60;100.00
929;BME280;451;47.988;7.842;2023-10-31T18:11:28;98027.69;;;12.60;100.00
929;BME280;451;47.988;7.842;2023-10-31T18:20:32;98035.66;;;12.66;100.00
929;BME280;451;47.988;7.842;2023-10-31T18:29:37;98038.28;;;12.66;100.00
929;BME280;451;47.988;7.842;2023-10-31T18:38:41;98043.44;;;12.46;100.00
929;BME280;451;47.988;7.842;2023-10-31T18:47:45;98057.03;;;12.50;100.00
929;BME280;451;47.988;7.842;2023-10-31T18:56:49;98053.50;;;12.36;100.00
929;BME280;451;47.988;7.842;2023-10-31T19:05:54;98066.41;;;12.31;100.00
929;BME280;451;47.988;7.842;2023-10-31T19:14:57;98065.66;;;12.37;100.00
929;BME280;451;47.988;7.842;2023-10-31T19:24:02;98069.28;;;12.30;100.00
929;BME280;451;47.988;7.842;2023-10-31T19:33:06;98082.44;;;12.30;100.00
929;BME280;451;47.988;7.842;2023-10-31T19:42:11;98094.09;;;12.42;100.00
929;BME280;451;47.988;7.842;2023-10-31T19:51:14;98075.84;;;12.40;100.00
929;BME280;451;47.988;7.842;2023-10-31T20:00:20;98078.56;;;12.53;100.00
929;BME280;451;47.988;7.842;2023-10-31T20:09:26;98033.94;;;12.24;100.00
929;BME280;451;47.988;7.842;2023-10-31T20:18:31;98094.13;;;12.76;100.00
929;BME280;451;47.988;7.842;2023-10-31T20:27:34;98085.47;;;12.89;100.00
929;BME280;451;47.988;7.842;2023-10-31T20:36:39;98075.41;;;12.99;98.97
929;BME280;451;47.988;7.842;2023-10-31T20:45:43;98042.53;;;13.02;96.49
929;BME280;451;47.988;7.842;2023-10-31T20:54:48;98018.28;;;12.78;95.84
929;BME280;451;47.988;7.842;2023-10-31T21:03:51;98042.97;;;13.05;94.26
929;BME280;451;47.988;7.842;2023-10-31T21:12:55;97994.50;;;12.72;91.64
929;BME280;451;47.988;7.842;2023-10-31T21:21:59;98030.88;;;13.17;90.08
929;BME280;451;47.988;7.842;2023-10-31T21:31:04;98016.66;;;13.25;87.93
929;BME280;451;47.988;7.842;2023-10-31T21:40:08;97993.41;;;13.07;89.23
929;BME280;451;47.988;7.842;2023-10-31T21:49:14;97942.97;;;12.76;87.35
929;BME280;451;47.988;7.842;2023-10-31T21:58:17;97962.09;;;12.84;86.11
929;BME280;451;47.988;7.842;2023-10-31T22:07:22;98017.78;;;13.09;86.45
929;BME280;451;47.988;7.842;2023-10-31T22:16:25;98017.59;;;13.04;86.29
929;BME280;451;47.988;7.842;2023-10-31T22:25:34;97967.84;;;13.08;81.63
929;BME280;451;47.988;7.842;2023-10-31T22:34:39;98010.63;;;13.51;79.49
929;BME280;451;47.988;7.842;2023-10-31T22:43:45;98004.16;;;13.60;78.40
929;BME280;451;47.988;7.842;2023-10-31T22:52:48;98003.13;;;13.41;79.79
929;BME280;451;47.988;7.842;2023-10-31T23:01:52;97997.19;;;13.32;79.95
929;BME280;451;47.988;7.842;2023-10-31T23:10:58;97993.53;;;13.27;79.40
929;BME280;451;47.988;7.842;2023-10-31T23:20:04;97947.47;;;12.88;79.76
929;BME280;451;47.988;7.842;2023-10-31T23:29:09;97946.00;;;12.73;81.55
929;BME280;451;47.988;7.842;2023-10-31T23:38:13;97986.81;;;12.77;84.12
929;BME280;451;47.988;7.842;2023-10-31T23:47:16;97984.38;;;12.82;83.92
929;BME280;451;47.988;7.842;2023-10-31T23:56:20;97977.06;;;12.77;83.91
